Time;durP1;ratioP1;P1;durP2;ratioP2;P2;SDS_P1;SDS_P2;PMS_P1;PMS_P2;Temp;Humidity;BMP_temperature;BMP_pressure;BME280_temperature;BME280_humidity;BME280_pressure;Samples;Min_cycle;Max_cycle;Signal;HPM_P1;HPM_P2
2022/03/15 00:00:27;;;;;;;19.27;10.00;;;6.20;99.90;;;;;;5073952;28;20036;-63
2022/03/15 00:02:55;;;;;;;19.25;10.07;;;6.20;99.90;;;;;;5074425;28;20104;-63
2022/03/15 00:05:21;;;;;;;22.30;10.65;;;6.20;99.90;;;;;;5074546;28;20032;-62
2022/03/15 00:07:47;;;;;;;26.83;10.52;;;6.20;99.90;;;;;;5074083;28;20412;-62
2022/03/15 00:10:15;;;;;;;19.15;9.82;;;6.20;99.90;;;;;;5074045;28;20075;-62
2022/03/15 00:12:42;;;;;;;20.83;10.05;;;6.20;99.90;;;;;;5073063;28;20088;-62
2022/03/15 00:15:08;;;;;;;19.27;9.80;;;6.20;99.90;;;;;;5074268;28;20117;-62
2022/03/15 00:17:35;;;;;;;23.27;10.45;;;6.20;99.90;;;;;;5073670;28;20036;-63
2022/03/15 00:20:03;;;;;;;21.85;10.68;;;6.20;99.90;;;;;;5072819;28;20501;-63
2022/03/15 00:22:29;;;;;;;23.42;10.60;;;6.10;99.90;;;;;;5052896;28;20056;-62
2022/03/15 00:24:54;;;;;;;26.30;10.63;;;6.10;99.90;;;;;;5053971;28;20051;-63
2022/03/15 00:27:21;;;;;;;22.20;10.32;;;6.20;99.90;;;;;;5052897;28;20454;-62
2022/03/15 00:29:46;;;;;;;23.05;10.93;;;6.10;99.90;;;;;;5052902;28;20056;-63
2022/03/15 00:32:19;;;;;;;23.77;11.05;;;6.20;99.90;;;;;;5072387;28;20040;-62
2022/03/15 00:34:47;;;;;;;18.67;10.27;;;6.20;99.90;;;;;;5073757;28;20421;-62
2022/03/15 00:37:13;;;;;;;24.33;11.68;;;6.20;99.90;;;;;;5072714;28;20044;-62
2022/03/15 00:39:39;;;;;;;21.77;12.00;;;6.20;99.90;;;;;;5073980;28;20054;-62
2022/03/15 00:42:04;;;;;;;18.80;11.55;;;6.30;99.90;;;;;;5073505;28;20124;-62
2022/03/15 00:44:30;;;;;;;21.38;11.10;;;6.30;99.90;;;;;;5073910;28;20415;-62
2022/03/15 00:46:56;;;;;;;23.05;12.05;;;6.40;99.90;;;;;;5073418;28;20041;-63
2022/03/15 00:49:22;;;;;;;20.90;11.48;;;6.40;99.90;;;;;;5073862;28;20072;-62
2022/03/15 00:51:48;;;;;;;19.55;11.68;;;6.40;99.90;;;;;;5072440;28;20093;-62
2022/03/15 00:54:13;;;;;;;23.30;11.75;;;6.50;99.90;;;;;;5073881;28;20040;-63
2022/03/15 00:56:39;;;;;;;23.95;11.52;;;6.50;99.90;;;;;;5072919;28;20055;-62
2022/03/15 00:59:05;;;;;;;27.55;12.40;;;6.60;99.90;;;;;;5073156;28;20381;-62
2022/03/15 01:01:31;;;;;;;21.35;12.18;;;6.60;99.90;;;;;;5074013;28;20472;-62
2022/03/15 01:03:57;;;;;;;22.05;12.00;;;6.60;99.90;;;;;;5076677;28;20069;-63
2022/03/15 01:06:23;;;;;;;21.88;12.30;;;6.70;99.90;;;;;;5077700;28;20129;-62
2022/03/15 01:08:48;;;;;;;19.92;13.05;;;6.70;99.90;;;;;;5077571;28;20082;-62
2022/03/15 01:11:14;;;;;;;26.27;13.45;;;6.70;99.90;;;;;;5076099;28;20486;-63
2022/03/15 01:13:39;;;;;;;25.20;12.90;;;6.70;99.90;;;;;;5077636;28;20044;-62
2022/03/15 01:16:05;;;;;;;27.30;13.27;;;6.70;99.90;;;;;;5077476;28;20091;-62
2022/03/15 01:18:31;;;;;;;26.52;13.88;;;6.70;99.90;;;;;;5077022;28;20045;-62
2022/03/15 01:20:56;;;;;;;24.80;13.50;;;6.70;99.90;;;;;;5075822;28;20041;-62
2022/03/15 01:23:22;;;;;;;24.30;12.88;;;6.80;99.90;;;;;;5077378;28;20048;-61
2022/03/15 01:25:48;;;;;;;29.88;13.85;;;6.80;99.90;;;;;;5077675;28;20051;-63
2022/03/15 01:28:14;;;;;;;23.75;13.57;;;6.80;99.90;;;;;;5075708;28;20457;-62
2022/03/15 01:30:40;;;;;;;27.67;13.80;;;6.80;99.90;;;;;;5077004;28;20032;-62
2022/03/15 01:33:06;;;;;;;22.52;13.43;;;6.80;99.90;;;;;;5076903;28;20051;-62
2022/03/15 01:35:32;;;;;;;25.73;13.40;;;6.80;99.90;;;;;;5076338;28;20029;-63
2022/03/15 01:37:58;;;;;;;22.15;13.48;;;6.80;99.90;;;;;;5076614;28;20049;-62
2022/03/15 01:40:23;;;;;;;22.25;13.85;;;6.80;99.90;;;;;;5077110;28;20063;-62
2022/03/15 01:42:49;;;;;;;25.27;13.75;;;6.70;99.90;;;;;;5077206;28;20457;-62
2022/03/15 01:45:15;;;;;;;26.00;13.23;;;6.70;99.90;;;;;;5075894;28;20059;-62
2022/03/15 01:47:42;;;;;;;24.15;13.57;;;6.60;99.90;;;;;;5076445;28;20142;-62
2022/03/15 01:50:09;;;;;;;24.98;14.05;;;6.70;99.90;;;;;;5074694;28;20045;-63
2022/03/15 01:52:34;;;;;;;26.80;14.18;;;6.60;99.90;;;;;;5076867;28;20028;-63
2022/03/15 01:55:00;;;;;;;29.23;14.48;;;6.60;99.90;;;;;;5075579;28;20048;-62
2022/03/15 01:57:25;;;;;;;28.10;15.57;;;6.50;99.90;;;;;;5076434;28;20040;-62
2022/03/15 01:59:51;;;;;;;27.67;14.70;;;6.50;99.90;;;;;;5077078;28;20040;-62
2022/03/15 02:02:17;;;;;;;25.48;14.07;;;6.50;99.90;;;;;;5075276;28;20464;-62
2022/03/15 02:04:43;;;;;;;24.98;15.00;;;6.50;99.90;;;;;;5075781;28;20045;-62
2022/03/15 02:07:12;;;;;;;28.67;15.88;;;6.40;99.90;;;;;;5076267;28;20460;-62
2022/03/15 02:09:38;;;;;;;26.33;14.13;;;6.40;99.90;;;;;;5075401;28;20090;-63
2022/03/15 02:12:05;;;;;;;27.67;15.30;;;6.40;99.90;;;;;;5074745;28;20040;-62
2022/03/15 02:14:31;;;;;;;25.10;14.80;;;6.30;99.90;;;;;;5075595;28;20052;-62
2022/03/15 02:16:56;;;;;;;27.08;15.13;;;6.30;99.90;;;;;;5074798;28;20461;-62
2022/03/15 02:19:22;;;;;;;30.05;15.52;;;6.20;99.90;;;;;;5076545;28;20085;-62
2022/03/15 02:21:49;;;;;;;29.88;15.40;;;6.20;99.90;;;;;;5075690;28;20060;-62
2022/03/15 02:24:16;;;;;;;27.98;15.10;;;6.20;99.90;;;;;;5076088;28;20465;-62
2022/03/15 02:26:41;;;;;;;29.90;16.42;;;6.10;99.90;;;;;;5076100;28;20060;-61
2022/03/15 02:29:08;;;;;;;28.35;15.70;;;6.10;99.90;;;;;;5076574;28;20037;-62
2022/03/15 02:31:33;;;;;;;31.58;15.48;;;6.10;99.90;;;;;;5074698;28;20084;-61
2022/03/15 02:33:59;;;;;;;28.90;15.10;;;6.10;99.90;;;;;;5076114;28;20453;-62
2022/03/15 02:36:25;;;;;;;30.83;16.23;;;6.00;99.90;;;;;;5075152;28;20457;-62
2022/03/15 02:38:50;;;;;;;25.77;14.88;;;6.00;99.90;;;;;;5074719;28;20044;-62
2022/03/15 02:41:16;;;;;;;27.58;15.15;;;6.00;99.90;;;;;;5074876;28;20045;-62
2022/03/15 02:43:44;;;;;;;25.15;14.73;;;5.90;99.90;;;;;;5075966;28;20369;-62
2022/03/15 02:46:10;;;;;;;25.00;14.05;;;5.90;99.90;;;;;;5075526;28;20036;-63
2022/03/15 02:48:36;;;;;;;26.45;15.80;;;5.90;99.90;;;;;;5075524;28;20051;-62
2022/03/15 02:51:06;;;;;;;26.15;15.27;;;5.90;99.90;;;;;;5074620;28;20043;-62
2022/03/15 02:53:32;;;;;;;32.92;15.45;;;5.90;99.90;;;;;;5058337;28;20385;-62
2022/03/15 02:55:58;;;;;;;29.50;16.15;;;5.90;99.90;;;;;;5075794;28;20036;-62
2022/03/15 02:58:24;;;;;;;26.40;15.65;;;5.90;99.90;;;;;;5074909;28;20514;-62
2022/03/15 03:00:49;;;;;;;26.60;15.52;;;5.90;99.90;;;;;;5074313;28;20112;-62
2022/03/15 03:03:15;;;;;;;28.40;15.98;;;5.90;99.90;;;;;;5075173;28;20040;-62
2022/03/15 03:05:41;;;;;;;32.17;15.80;;;5.80;99.90;;;;;;5075330;28;20037;-62
2022/03/15 03:08:07;;;;;;;23.85;16.05;;;5.80;99.90;;;;;;5074826;28;20040;-61
2022/03/15 03:10:33;;;;;;;27.45;16.42;;;5.80;99.90;;;;;;5073937;28;20131;-62
2022/03/15 03:12:59;;;;;;;29.20;16.58;;;5.80;99.90;;;;;;5075396;28;20037;-62
2022/03/15 03:15:24;;;;;;;30.58;16.30;;;5.80;99.90;;;;;;5073788;28;20101;-62
2022/03/15 03:17:50;;;;;;;26.20;15.75;;;5.80;99.90;;;;;;5073423;28;20044;-62
2022/03/15 03:20:21;;;;;;;31.77;17.08;;;5.70;99.90;;;;;;5073533;28;20109;-62
2022/03/15 03:22:49;;;;;;;28.67;15.95;;;5.70;99.90;;;;;;5075029;28;20044;-62
2022/03/15 03:25:15;;;;;;;27.90;15.93;;;5.60;99.90;;;;;;5074685;28;20531;-62
2022/03/15 03:27:41;;;;;;;32.20;17.02;;;5.70;99.90;;;;;;5073376;28;20087;-62
2022/03/15 03:30:08;;;;;;;30.52;16.20;;;5.70;99.90;;;;;;5074796;28;20054;-62
2022/03/15 03:32:34;;;;;;;24.17;14.63;;;5.80;99.90;;;;;;5074247;28;20028;-62
2022/03/15 03:35:04;;;;;;;24.85;16.13;;;5.80;99.90;;;;;;5074027;28;20123;-62
2022/03/15 03:37:30;;;;;;;26.42;15.63;;;5.90;99.90;;;;;;5074464;28;20087;-62
2022/03/15 03:39:56;;;;;;;35.92;16.92;;;5.80;99.90;;;;;;5074923;28;20044;-63
2022/03/15 03:42:22;;;;;;;28.58;16.13;;;5.80;99.90;;;;;;5074598;28;20036;-62
2022/03/15 03:44:47;;;;;;;25.33;16.60;;;5.90;99.90;;;;;;5074808;28;20099;-63
2022/03/15 03:47:13;;;;;;;27.42;16.33;;;5.90;99.90;;;;;;5074099;28;20045;-62
2022/03/15 03:49:39;;;;;;;27.73;15.52;;;6.00;99.90;;;;;;5073486;28;20040;-63
2022/03/15 03:52:06;;;;;;;27.80;17.13;;;6.00;99.90;;;;;;5074130;28;20465;-62
2022/03/15 03:54:33;;;;;;;30.45;17.08;;;6.00;99.90;;;;;;5074456;28;20115;-62
2022/03/15 03:56:59;;;;;;;29.02;17.00;;;6.00;99.90;;;;;;5074283;28;20123;-62
2022/03/15 03:59:24;;;;;;;23.90;15.52;;;6.00;99.90;;;;;;5073136;28;20115;-62
2022/03/15 04:01:50;;;;;;;32.28;16.48;;;6.00;99.90;;;;;;5074286;28;20094;-63
2022/03/15 04:04:16;;;;;;;25.88;15.68;;;6.00;99.90;;;;;;5074422;28;20059;-62
2022/03/15 04:06:42;;;;;;;23.90;15.40;;;6.00;99.90;;;;;;5073992;28;20486;-62
2022/03/15 04:09:11;;;;;;;26.55;16.45;;;6.00;99.90;;;;;;5074400;28;20201;-63
2022/03/15 04:11:39;;;;;;;27.77;16.40;;;6.00;99.90;;;;;;5072773;28;20377;-63
2022/03/15 04:14:05;;;;;;;25.10;16.33;;;6.00;99.90;;;;;;5073434;28;20059;-62
2022/03/15 04:16:31;;;;;;;27.95;16.20;;;6.00;99.90;;;;;;5073964;28;20453;-62
2022/03/15 04:18:57;;;;;;;27.92;15.57;;;6.00;99.90;;;;;;5074259;28;20361;-62
2022/03/15 04:21:24;;;;;;;30.98;16.15;;;5.90;99.90;;;;;;5072758;28;20452;-62
2022/03/15 04:23:54;;;;;;;28.30;15.30;;;5.90;99.90;;;;;;5074176;28;20094;-62
2022/03/15 04:26:24;;;;;;;30.90;17.10;;;5.90;99.90;;;;;;5072987;28;20137;-63
2022/03/15 04:28:50;;;;;;;26.63;15.25;;;5.90;99.90;;;;;;5073008;28;20036;-62
2022/03/15 04:31:16;;;;;;;26.88;15.50;;;5.90;99.90;;;;;;5073437;28;20040;-62
2022/03/15 04:33:42;;;;;;;25.55;15.52;;;5.80;99.90;;;;;;5074090;28;20048;-62
2022/03/15 04:36:08;;;;;;;22.98;14.43;;;5.80;99.90;;;;;;5073176;28;20488;-63
2022/03/15 04:38:35;;;;;;;24.00;14.65;;;5.80;99.90;;;;;;5073586;28;20036;-62
2022/03/15 04:41:02;;;;;;;21.65;13.38;;;5.80;99.90;;;;;;5072821;28;20062;-62
2022/03/15 04:43:28;;;;;;;26.08;14.73;;;5.70;99.90;;;;;;5073052;28;20372;-63
2022/03/15 04:45:53;;;;;;;26.13;14.80;;;5.70;99.90;;;;;;5072906;28;20045;-62
2022/03/15 04:48:20;;;;;;;25.13;14.73;;;5.60;99.90;;;;;;5072561;28;20385;-63
2022/03/15 04:50:47;;;;;;;21.35;13.95;;;5.60;99.90;;;;;;5072701;28;20053;-62
2022/03/15 04:53:13;;;;;;;20.92;13.93;;;5.60;99.90;;;;;;5072740;28;20044;-62
2022/03/15 04:55:39;;;;;;;23.33;14.18;;;5.60;99.90;;;;;;5072662;28;20048;-62
2022/03/15 04:58:04;;;;;;;23.55;14.68;;;5.50;99.90;;;;;;5072386;28;20047;-62
2022/03/15 05:00:30;;;;;;;28.13;14.82;;;5.50;99.90;;;;;;5073513;28;20036;-63
2022/03/15 05:02:56;;;;;;;22.80;13.55;;;5.60;99.90;;;;;;5073491;28;20040;-65
2022/03/15 05:05:25;;;;;;;24.30;14.30;;;5.50;99.90;;;;;;5056509;28;20068;-63
2022/03/15 05:07:51;;;;;;;21.33;14.00;;;5.60;99.90;;;;;;5072359;28;20099;-65
2022/03/15 05:13:01;;;;;;;23.92;16.38;;;5.60;99.90;;;;;;5053490;28;20041;-64
2022/03/15 05:15:27;;;;;;;32.65;18.25;;;5.60;99.90;;;;;;5053416;28;20123;-63
2022/03/15 05:17:54;;;;;;;27.10;17.90;;;5.60;99.90;;;;;;5052033;28;20581;-64
2022/03/15 05:20:20;;;;;;;28.52;19.33;;;5.70;99.90;;;;;;5069802;28;20044;-64
2022/03/15 05:22:46;;;;;;;29.63;18.80;;;5.70;99.90;;;;;;5052805;28;20059;-64
2022/03/15 05:25:13;;;;;;;36.05;21.02;;;5.80;99.90;;;;;;5053567;28;20041;-62
2022/03/15 05:27:41;;;;;;;34.50;20.75;;;5.80;99.90;;;;;;5053149;28;20049;-62
2022/03/15 05:30:07;;;;;;;35.85;22.55;;;5.80;99.90;;;;;;5052325;28;20123;-63
2022/03/15 05:32:36;;;;;;;35.20;21.83;;;5.80;99.90;;;;;;5071082;28;20112;-64
2022/03/15 05:35:03;;;;;;;35.85;22.92;;;5.80;99.90;;;;;;5063989;28;20037;-63
2022/03/15 05:37:29;;;;;;;36.80;24.50;;;5.80;99.90;;;;;;5052408;28;20110;-63
2022/03/15 05:39:55;;;;;;;33.67;22.50;;;5.80;99.90;;;;;;5052766;28;20033;-63
2022/03/15 05:42:20;;;;;;;39.15;24.02;;;5.80;99.90;;;;;;5055827;28;20045;-64
2022/03/15 05:44:46;;;;;;;41.10;24.38;;;5.80;99.90;;;;;;5051692;28;20065;-63
2022/03/15 05:47:12;;;;;;;36.05;24.13;;;5.80;99.90;;;;;;5052425;28;20072;-63
2022/03/15 05:49:38;;;;;;;37.50;24.02;;;5.80;99.90;;;;;;5054205;28;20083;-63
2022/03/15 05:52:04;;;;;;;34.08;24.38;;;5.80;99.90;;;;;;5057055;28;20073;-63
2022/03/15 05:54:30;;;;;;;38.05;24.42;;;5.80;99.90;;;;;;5055018;28;20029;-63
2022/03/15 05:56:56;;;;;;;37.30;25.13;;;5.80;99.90;;;;;;5055885;28;20041;-63
2022/03/15 05:59:22;;;;;;;40.50;26.38;;;5.90;99.90;;;;;;5056217;28;20051;-62
2022/03/15 06:01:48;;;;;;;40.15;24.77;;;5.90;99.90;;;;;;5057361;28;20448;-63
2022/03/15 06:04:13;;;;;;;41.00;26.30;;;5.90;99.90;;;;;;5054897;28;20107;-63
2022/03/15 06:06:39;;;;;;;37.65;25.92;;;5.90;99.90;;;;;;5055409;28;20110;-63
2022/03/15 06:09:04;;;;;;;40.88;24.58;;;5.90;99.90;;;;;;5055852;28;20037;-63
2022/03/15 06:11:32;;;;;;;38.55;25.80;;;5.90;99.90;;;;;;5056867;28;20069;-64
2022/03/15 06:13:58;;;;;;;41.40;26.90;;;6.00;99.90;;;;;;5054221;28;20041;-63
2022/03/15 06:16:24;;;;;;;45.03;27.65;;;6.00;99.90;;;;;;5055182;28;20466;-63
2022/03/15 06:18:50;;;;;;;39.88;26.23;;;6.00;99.90;;;;;;5056248;28;20036;-63
2022/03/15 06:21:17;;;;;;;35.30;25.45;;;6.00;99.90;;;;;;5062780;28;20473;-61
2022/03/15 06:23:43;;;;;;;41.88;25.45;;;6.00;99.90;;;;;;5075024;28;20413;-62
2022/03/15 06:26:09;;;;;;;37.40;24.55;;;6.00;99.90;;;;;;5075266;28;20044;-63
2022/03/15 06:28:36;;;;;;;39.95;24.88;;;6.10;99.90;;;;;;5075571;28;20040;-63
2022/03/15 06:31:02;;;;;;;35.03;24.25;;;6.00;99.90;;;;;;5075358;28;20067;-63
2022/03/15 06:33:29;;;;;;;38.88;24.77;;;6.10;99.90;;;;;;5076102;28;20046;-63
2022/03/15 06:35:54;;;;;;;37.72;25.42;;;6.20;99.90;;;;;;5075150;28;20051;-63
2022/03/15 06:38:20;;;;;;;36.63;24.40;;;6.20;99.90;;;;;;5073848;28;20037;-63
2022/03/15 06:40:46;;;;;;;36.45;23.42;;;6.20;99.90;;;;;;5058546;28;20583;-62
2022/03/15 06:43:13;;;;;;;36.53;24.33;;;6.20;99.90;;;;;;5054284;28;20044;-62
2022/03/15 06:45:41;;;;;;;34.00;22.85;;;6.20;99.90;;;;;;5055401;28;20039;-62
2022/03/15 06:48:07;;;;;;;37.25;23.83;;;6.30;99.90;;;;;;5053926;28;20462;-62
2022/03/15 06:50:34;;;;;;;37.63;24.33;;;6.30;99.90;;;;;;5057434;28;20029;-63
2022/03/15 06:52:59;;;;;;;34.85;23.45;;;6.30;99.90;;;;;;5075784;28;20112;-63
2022/03/15 06:55:26;;;;;;;36.45;23.27;;;6.30;99.90;;;;;;5075693;28;20116;-63
2022/03/15 06:57:51;;;;;;;34.80;23.52;;;6.40;99.90;;;;;;5075390;28;20365;-62
2022/03/15 07:00:17;;;;;;;33.67;23.42;;;6.30;99.90;;;;;;5075151;28;20501;-62
2022/03/15 07:02:43;;;;;;;35.08;22.83;;;6.30;99.90;;;;;;5072289;28;20178;-62
2022/03/15 07:05:09;;;;;;;37.03;22.73;;;6.40;99.90;;;;;;5054415;28;20068;-63
2022/03/15 07:07:35;;;;;;;34.65;22.55;;;6.40;99.90;;;;;;5052774;28;20047;-63
2022/03/15 07:10:05;;;;;;;33.33;21.83;;;6.50;99.90;;;;;;5052773;28;20045;-63
2022/03/15 07:12:32;;;;;;;31.15;21.65;;;6.50;99.90;;;;;;5057253;28;20032;-62
2022/03/15 07:14:57;;;;;;;32.30;23.83;;;6.60;99.90;;;;;;5053480;28;20065;-63
2022/03/15 07:17:23;;;;;;;33.28;22.38;;;6.60;99.90;;;;;;5053406;28;20079;-63
2022/03/15 07:19:49;;;;;;;32.30;22.08;;;6.60;99.90;;;;;;5053526;28;20351;-63
2022/03/15 07:22:14;;;;;;;33.28;21.23;;;6.60;99.90;;;;;;5038579;28;20054;-63
2022/03/15 07:24:40;;;;;;;35.70;22.48;;;6.70;99.90;;;;;;5053726;28;20044;-63
2022/03/15 07:27:06;;;;;;;35.55;21.75;;;6.70;99.90;;;;;;5053179;28;20033;-63
2022/03/15 07:29:32;;;;;;;30.23;21.60;;;6.80;99.90;;;;;;5055893;28;20123;-63
2022/03/15 07:31:57;;;;;;;30.98;20.80;;;6.80;99.90;;;;;;5073537;28;20100;-63
2022/03/15 07:34:23;;;;;;;32.78;22.30;;;6.90;99.90;;;;;;5060090;28;20431;-63
2022/03/15 07:36:49;;;;;;;29.00;21.00;;;6.90;99.90;;;;;;5053548;28;20426;-63
2022/03/15 07:39:15;;;;;;;34.60;22.42;;;6.90;99.90;;;;;;5053601;28;20634;-63
2022/03/15 07:41:40;;;;;;;31.98;20.33;;;6.90;99.90;;;;;;5064228;28;20046;-63
2022/03/15 07:44:07;;;;;;;32.70;22.00;;;7.00;99.90;;;;;;5073920;28;20075;-63
2022/03/15 07:46:33;;;;;;;29.52;20.42;;;7.10;99.90;;;;;;5072744;28;20082;-65
2022/03/15 07:48:59;;;;;;;30.73;21.52;;;7.10;99.90;;;;;;5073391;28;20090;-64
2022/03/15 07:51:25;;;;;;;31.15;20.25;;;7.10;99.90;;;;;;5073999;28;20488;-64
2022/03/15 07:53:55;;;;;;;29.85;20.80;;;7.20;99.90;;;;;;5073677;28;20045;-63
2022/03/15 07:56:20;;;;;;;28.60;20.15;;;7.10;99.90;;;;;;5071148;28;20041;-63
2022/03/15 07:58:46;;;;;;;33.25;20.23;;;7.20;99.90;;;;;;5054389;28;20106;-63
2022/03/15 08:01:11;;;;;;;30.60;21.33;;;7.20;99.90;;;;;;5059918;28;20421;-64
2022/03/15 08:03:37;;;;;;;29.50;20.42;;;7.20;99.90;;;;;;5074204;28;20530;-63
2022/03/15 08:06:03;;;;;;;29.63;20.48;;;7.30;99.90;;;;;;5073119;28;20093;-63
2022/03/15 08:08:28;;;;;;;27.23;20.55;;;7.30;99.90;;;;;;5073903;28;20044;-64
2022/03/15 08:10:54;;;;;;;28.17;20.65;;;7.30;99.90;;;;;;5073232;28;20024;-63
2022/03/15 08:13:20;;;;;;;30.77;20.27;;;7.40;99.90;;;;;;5074469;28;20102;-63
2022/03/15 08:15:45;;;;;;;28.98;21.08;;;7.40;99.90;;;;;;5072944;28;20079;-63
2022/03/15 08:18:12;;;;;;;30.15;20.48;;;7.50;99.90;;;;;;5073496;28;20105;-64
2022/03/15 08:20:39;;;;;;;29.75;20.42;;;7.50;99.90;;;;;;5073304;28;20500;-63
2022/03/15 08:23:06;;;;;;;30.42;20.85;;;7.50;99.90;;;;;;5074029;28;20045;-63
2022/03/15 08:25:31;;;;;;;32.25;21.10;;;7.60;99.90;;;;;;5073201;28;20041;-63
2022/03/15 08:27:58;;;;;;;28.27;20.73;;;7.60;99.90;;;;;;5073312;28;20469;-64
2022/03/15 08:30:24;;;;;;;26.13;19.05;;;7.60;99.90;;;;;;5073907;28;20355;-63
2022/03/15 08:32:50;;;;;;;29.67;20.13;;;7.70;99.90;;;;;;5072614;28;20066;-63
2022/03/15 08:35:15;;;;;;;28.65;20.77;;;7.70;99.90;;;;;;5073675;28;20048;-64
2022/03/15 08:37:42;;;;;;;27.70;19.42;;;7.70;99.90;;;;;;5072254;28;20055;-63
2022/03/15 08:40:09;;;;;;;28.10;19.60;;;7.70;99.90;;;;;;5073148;28;20052;-63
2022/03/15 08:42:35;;;;;;;26.90;19.00;;;7.80;99.90;;;;;;5072369;28;20055;-64
2022/03/15 08:45:00;;;;;;;29.23;20.02;;;7.80;99.90;;;;;;5072676;28;20045;-63
2022/03/15 08:47:28;;;;;;;27.67;19.35;;;7.90;99.90;;;;;;5055397;28;20041;-64
2022/03/15 08:49:55;;;;;;;27.67;18.95;;;7.90;99.90;;;;;;5072694;28;20033;-64
2022/03/15 08:52:21;;;;;;;27.90;19.13;;;7.90;99.90;;;;;;5072526;28;20052;-64
2022/03/15 08:54:46;;;;;;;26.80;18.48;;;8.00;99.90;;;;;;5072736;28;20037;-63
2022/03/15 08:57:12;;;;;;;26.08;18.90;;;8.00;99.90;;;;;;5073190;28;20468;-63
2022/03/15 08:59:38;;;;;;;28.15;19.48;;;8.10;99.90;;;;;;5072482;28;20044;-63
2022/03/15 09:02:04;;;;;;;28.08;19.63;;;8.10;99.90;;;;;;5072133;28;20040;-63
2022/03/15 09:04:30;;;;;;;28.25;20.48;;;8.10;99.90;;;;;;5072639;28;20041;-63
2022/03/15 09:06:55;;;;;;;28.83;19.65;;;8.10;99.90;;;;;;5073153;28;20480;-64
2022/03/15 09:09:24;;;;;;;30.67;19.52;;;8.00;99.90;;;;;;5073627;28;20441;-64
2022/03/15 09:11:50;;;;;;;29.92;19.75;;;8.10;99.90;;;;;;5072427;28;20046;-64
2022/03/15 09:14:16;;;;;;;25.42;19.23;;;8.10;99.90;;;;;;5072675;28;20445;-63
2022/03/15 09:16:42;;;;;;;28.90;19.08;;;8.00;99.90;;;;;;5073009;28;20070;-64
2022/03/15 09:19:09;;;;;;;26.65;19.08;;;8.10;99.90;;;;;;5072697;28;20040;-64
2022/03/15 09:21:35;;;;;;;25.75;19.00;;;8.20;99.90;;;;;;5071934;28;20114;-64
2022/03/15 09:24:01;;;;;;;27.02;19.30;;;8.20;99.90;;;;;;5077274;28;20032;-63
2022/03/15 09:26:27;;;;;;;26.17;19.08;;;8.30;99.90;;;;;;5076121;28;20105;-63
2022/03/15 09:28:52;;;;;;;26.27;18.63;;;8.30;99.90;;;;;;5075972;28;20370;-63
2022/03/15 09:31:20;;;;;;;25.08;19.00;;;8.30;99.90;;;;;;5076965;28;20527;-63
2022/03/15 09:33:46;;;;;;;29.45;18.52;;;8.30;99.90;;;;;;5077098;28;20063;-65
2022/03/15 09:36:13;;;;;;;28.77;18.65;;;8.40;99.90;;;;;;5075870;28;20722;-63
2022/03/15 09:38:39;;;;;;;25.20;17.90;;;8.50;99.90;;;;;;5059773;28;20044;-63
2022/03/15 09:41:05;;;;;;;30.20;18.17;;;8.60;99.90;;;;;;5061769;28;20037;-63
2022/03/15 09:43:42;;;;;;;27.27;18.02;;;8.60;99.90;;;;;;5077022;28;20045;-63
2022/03/15 09:46:09;;;;;;;28.00;18.65;;;8.70;99.90;;;;;;5075535;28;20382;-63
2022/03/15 09:48:35;;;;;;;25.88;17.30;;;8.70;99.90;;;;;;5059334;28;20116;-63
2022/03/15 09:51:06;;;;;;;27.77;18.05;;;8.80;99.90;;;;;;5075390;28;20048;-63
2022/03/15 09:53:37;;;;;;;26.23;17.83;;;8.90;99.90;;;;;;5059710;28;20115;-63
2022/03/15 09:56:03;;;;;;;27.63;18.08;;;9.00;99.90;;;;;;5075288;28;20041;-63
2022/03/15 09:58:29;;;;;;;25.80;17.13;;;9.10;99.90;;;;;;5075672;28;20127;-64
2022/03/15 10:00:57;;;;;;;25.73;17.70;;;9.00;99.90;;;;;;5075378;28;20127;-63
2022/03/15 10:03:24;;;;;;;25.00;17.08;;;9.10;99.90;;;;;;5075527;28;20376;-64
2022/03/15 10:05:50;;;;;;;23.70;17.52;;;9.10;99.90;;;;;;5075425;28;20048;-64
2022/03/15 10:08:20;;;;;;;28.17;18.35;;;9.10;99.90;;;;;;5074945;28;20136;-64
2022/03/15 10:10:51;;;;;;;24.02;16.52;;;9.20;99.90;;;;;;5073330;28;20037;-63
2022/03/15 10:13:19;;;;;;;25.38;17.05;;;9.20;99.90;;;;;;5071302;28;20136;-63
2022/03/15 10:16:03;;;;;;;26.17;17.50;;;9.20;99.90;;;;;;5038445;28;20040;-66
2022/03/15 10:18:30;;;;;;;25.48;15.40;;;9.30;99.90;;;;;;5055091;28;20128;-63
2022/03/15 10:20:56;;;;;;;26.27;16.52;;;9.30;99.90;;;;;;5059210;28;20060;-64
2022/03/15 10:23:24;;;;;;;23.90;17.10;;;9.40;99.90;;;;;;5076295;28;20040;-63
2022/03/15 10:25:53;;;;;;;24.25;16.98;;;9.50;99.90;;;;;;5075373;28;20146;-64
2022/03/15 10:28:19;;;;;;;24.50;16.30;;;9.50;99.90;;;;;;5075029;28;20041;-64
2022/03/15 10:30:47;;;;;;;24.92;16.60;;;9.60;99.90;;;;;;5074597;28;20118;-64
2022/03/15 10:33:14;;;;;;;25.27;15.63;;;9.60;99.90;;;;;;5075653;28;20091;-63
2022/03/15 10:35:42;;;;;;;22.83;16.40;;;9.70;99.90;;;;;;5057682;28;20106;-63
2022/03/15 10:38:09;;;;;;;25.42;16.35;;;9.70;99.90;;;;;;5062929;28;20041;-63
2022/03/15 10:40:41;;;;;;;26.38;16.60;;;9.90;99.90;;;;;;5055829;28;20067;-64
2022/03/15 10:43:18;;;;;;;24.50;16.83;;;10.00;99.90;;;;;;5054828;28;20052;-63
2022/03/15 10:45:46;;;;;;;24.40;15.70;;;10.10;99.90;;;;;;5055808;28;20059;-63
2022/03/15 10:48:15;;;;;;;23.25;15.77;;;10.20;99.90;;;;;;5055304;28;20067;-62
2022/03/15 10:50:49;;;;;;;18.92;14.10;;;10.20;99.90;;;;;;5055270;28;20121;-62
2022/03/15 10:53:15;;;;;;;25.52;16.33;;;10.40;99.90;;;;;;5057914;28;20047;-63
2022/03/15 10:55:41;;;;;;;19.42;13.93;;;10.50;99.90;;;;;;5074532;28;20167;-62
2022/03/15 10:58:09;;;;;;;21.35;15.02;;;10.50;99.90;;;;;;5074018;28;20066;-63
2022/03/15 11:00:41;;;;;;;20.83;14.40;;;10.60;99.90;;;;;;5074085;28;20469;-64
2022/03/15 11:03:10;;;;;;;22.60;14.15;;;10.70;99.90;;;;;;5070903;28;20044;-63
2022/03/15 11:05:37;;;;;;;24.58;14.15;;;10.60;99.90;;;;;;5055512;28;20441;-63
2022/03/15 11:08:11;;;;;;;21.80;14.25;;;10.70;99.90;;;;;;5053909;28;20037;-63
2022/03/15 11:10:38;;;;;;;20.85;14.10;;;10.70;99.90;;;;;;5054528;28;20045;-62
2022/03/15 11:13:11;;;;;;;20.45;14.95;;;10.80;99.90;;;;;;5073801;28;20097;-62
2022/03/15 11:15:46;;;;;;;21.95;13.82;;;10.80;99.90;;;;;;5074354;28;20066;-63
2022/03/15 11:18:13;;;;;;;21.30;13.95;;;10.90;99.90;;;;;;5073633;28;20052;-63
2022/03/15 11:20:41;;;;;;;21.35;13.88;;;10.90;99.90;;;;;;5073550;28;20117;-62
2022/03/15 11:23:09;;;;;;;19.08;13.70;;;11.00;99.90;;;;;;5074734;28;20125;-62
2022/03/15 11:25:37;;;;;;;18.98;13.82;;;11.10;99.90;;;;;;5073789;28;20040;-62
2022/03/15 11:28:06;;;;;;;20.33;13.38;;;11.00;99.90;;;;;;5056824;28;20055;-62
2022/03/15 11:30:32;;;;;;;19.25;12.52;;;11.10;99.90;;;;;;5074047;28;20044;-63
2022/03/15 11:33:01;;;;;;;18.80;13.05;;;11.10;99.90;;;;;;5073196;28;20485;-63
2022/03/15 11:35:29;;;;;;;20.25;12.93;;;11.20;99.90;;;;;;5073649;28;20041;-64
2022/03/15 11:37:55;;;;;;;17.63;12.98;;;11.30;99.90;;;;;;5073249;28;20115;-63
2022/03/15 11:40:21;;;;;;;19.77;12.57;;;11.30;99.90;;;;;;5074973;28;20033;-63
2022/03/15 11:42:50;;;;;;;18.92;12.27;;;11.30;99.90;;;;;;5060646;28;20051;-63
2022/03/15 11:45:28;;;;;;;18.88;12.93;;;11.30;99.90;;;;;;5051985;28;20129;-63
2022/03/15 11:48:01;;;;;;;22.08;12.05;;;11.30;99.90;;;;;;5053800;28;20063;-63
2022/03/15 11:51:15;;;;;;;19.23;12.13;;;11.30;99.90;;;;;;5053341;28;20055;-63
2022/03/15 11:54:06;;;;;;;17.50;11.15;;;11.40;99.90;;;;;;5048226;28;20053;-62
2022/03/15 11:56:53;;;;;;;18.65;10.55;;;11.50;99.90;;;;;;5053252;28;20124;-64
2022/03/15 11:59:19;;;;;;;19.92;12.00;;;11.60;99.90;;;;;;5054640;28;20052;-63
2022/03/15 12:01:52;;;;;;;18.88;12.38;;;11.70;99.90;;;;;;5062304;28;20047;-63
2022/03/15 12:04:23;;;;;;;16.75;11.75;;;11.70;99.90;;;;;;5074779;28;20067;-63
2022/03/15 12:06:54;;;;;;;17.60;10.85;;;11.70;99.90;;;;;;5073945;28;20040;-64
2022/03/15 12:09:22;;;;;;;18.38;12.57;;;11.70;99.90;;;;;;5073287;28;20062;-63
2022/03/15 12:12:08;;;;;;;19.13;12.20;;;11.90;99.90;;;;;;5073830;28;20040;-63
2022/03/15 12:14:45;;;;;;;21.40;12.57;;;11.90;99.90;;;;;;5073184;28;20342;-64
2022/03/15 12:17:12;;;;;;;18.10;12.15;;;11.90;99.90;;;;;;5072547;28;20055;-64
2022/03/15 12:19:49;;;;;;;20.58;12.85;;;11.90;99.90;;;;;;5072650;28;20128;-63
2022/03/15 12:22:34;;;;;;;17.85;12.77;;;12.00;99.90;;;;;;5073029;28;20048;-63
2022/03/15 12:25:07;;;;;;;18.90;12.00;;;12.00;99.90;;;;;;5072840;28;20057;-63
2022/03/15 12:27:40;;;;;;;17.10;11.93;;;12.00;99.90;;;;;;5070719;28;20055;-63
2022/03/15 12:30:08;;;;;;;17.33;11.80;;;12.00;99.90;;;;;;5052318;28;20044;-63
2022/03/15 12:32:34;;;;;;;18.95;12.20;;;12.10;99.90;;;;;;5038379;28;20290;-63
2022/03/15 12:35:00;;;;;;;17.98;12.65;;;12.30;99.90;;;;;;5054962;28;20105;-63
2022/03/15 12:37:37;;;;;;;18.23;12.40;;;12.60;99.90;;;;;;5052130;28;20037;-64